sensor_id;sensor_type;location;lat;lon;timestamp;temperature;humidity
32502;DHT22;18952;52.516;13.460;2023-07-13T00:02:17;20.90;84.50
32502;DHT22;18952;52.516;13.460;2023-07-13T00:04:44;20.80;84.60
32502;DHT22;18952;52.516;13.460;2023-07-13T00:07:11;20.80;85.10
32502;DHT22;18952;52.516;13.460;2023-07-13T00:09:37;20.70;85.50
32502;DHT22;18952;52.516;13.460;2023-07-13T00:12:05;20.60;85.90
32502;DHT22;18952;52.516;13.460;2023-07-13T00:14:32;20.60;86.00
32502;DHT22;18952;52.516;13.460;2023-07-13T00:16:58;20.60;86.10
32502;DHT22;18952;52.516;13.460;2023-07-13T00:19:25;20.60;86.20
32502;DHT22;18952;52.516;13.460;2023-07-13T00:21:52;20.60;86.30
32502;DHT22;18952;52.516;13.460;2023-07-13T00:24:19;20.60;86.40
32502;DHT22;18952;52.516;13.460;2023-07-13T00:26:45;20.50;86.60
32502;DHT22;18952;52.516;13.460;2023-07-13T00:29:12;20.50;86.70
32502;DHT22;18952;52.516;13.460;2023-07-13T00:31:39;20.50;86.60
32502;DHT22;18952;52.516;13.460;2023-07-13T00:34:06;20.40;86.50
32502;DHT22;18952;52.516;13.460;2023-07-13T00:36:33;20.40;86.30
32502;DHT22;18952;52.516;13.460;2023-07-13T00:39:00;20.40;86.10
32502;DHT22;18952;52.516;13.460;2023-07-13T00:41:27;20.40;86.10
32502;DHT22;18952;52.516;13.460;2023-07-13T00:43:53;20.40;86.30
32502;DHT22;18952;52.516;13.460;2023-07-13T00:46:26;20.40;86.30
32502;DHT22;18952;52.516;13.460;2023-07-13T00:48:56;20.30;86.40
32502;DHT22;18952;52.516;13.460;2023-07-13T00:54:22;20.30;86.10
32502;DHT22;18952;52.516;13.460;2023-07-13T00:56:53;20.30;86.40
32502;DHT22;18952;52.516;13.460;2023-07-13T00:59:21;20.20;86.50
32502;DHT22;18952;52.516;13.460;2023-07-13T01:01:49;20.20;86.90
32502;DHT22;18952;52.516;13.460;2023-07-13T01:04:17;20.10;86.90
32502;DHT22;18952;52.516;13.460;2023-07-13T01:06:44;20.10;86.90
32502;DHT22;18952;52.516;13.460;2023-07-13T01:09:12;20.10;87.00
32502;DHT22;18952;52.516;13.460;2023-07-13T01:11:40;20.10;86.90
32502;DHT22;18952;52.516;13.460;2023-07-13T01:14:07;20.10;87.10
32502;DHT22;18952;52.516;13.460;2023-07-13T01:16:35;20.10;86.90
32502;DHT22;18952;52.516;13.460;2023-07-13T01:22:06;20.00;87.20
32502;DHT22;18952;52.516;13.460;2023-07-13T01:24:35;20.00;87.90
32502;DHT22;18952;52.516;13.460;2023-07-13T01:27:03;20.00;87.50
32502;DHT22;18952;52.516;13.460;2023-07-13T01:29:30;20.00;87.80
32502;DHT22;18952;52.516;13.460;2023-07-13T01:31:57;20.00;87.90
32502;DHT22;18952;52.516;13.460;2023-07-13T01:34:24;19.90;87.90
32502;DHT22;18952;52.516;13.460;2023-07-13T01:36:51;19.90;88.10
32502;DHT22;18952;52.516;13.460;2023-07-13T01:39:18;19.90;88.10
32502;DHT22;18952;52.516;13.460;2023-07-13T01:41:45;19.90;87.90
32502;DHT22;18952;52.516;13.460;2023-07-13T01:44:12;19.90;87.80
32502;DHT22;18952;52.516;13.460;2023-07-13T01:46:39;19.90;88.00
32502;DHT22;18952;52.516;13.460;2023-07-13T01:49:06;19.90;88.20
32502;DHT22;18952;52.516;13.460;2023-07-13T01:51:33;19.90;88.30
32502;DHT22;18952;52.516;13.460;2023-07-13T01:53:59;19.80;88.30
32502;DHT22;18952;52.516;13.460;2023-07-13T01:56:26;19.80;88.60
32502;DHT22;18952;52.516;13.460;2023-07-13T01:58:53;19.80;88.60
32502;DHT22;18952;52.516;13.460;2023-07-13T02:01:20;19.80;89.00
32502;DHT22;18952;52.516;13.460;2023-07-13T02:03:46;19.80;89.10
32502;DHT22;18952;52.516;13.460;2023-07-13T02:06:13;19.90;89.10
32502;DHT22;18952;52.516;13.460;2023-07-13T02:08:41;19.90;89.20
32502;DHT22;18952;52.516;13.460;2023-07-13T02:11:07;19.80;89.50
32502;DHT22;18952;52.516;13.460;2023-07-13T02:13:35;19.80;89.70
32502;DHT22;18952;52.516;13.460;2023-07-13T02:16:01;19.80;89.70
32502;DHT22;18952;52.516;13.460;2023-07-13T02:18:28;19.80;90.00
32502;DHT22;18952;52.516;13.460;2023-07-13T02:20:55;19.80;90.20
32502;DHT22;18952;52.516;13.460;2023-07-13T02:23:22;19.70;90.30
32502;DHT22;18952;52.516;13.460;2023-07-13T02:25:49;19.80;90.30
32502;DHT22;18952;52.516;13.460;2023-07-13T02:28:16;19.80;90.40
32502;DHT22;18952;52.516;13.460;2023-07-13T02:30:42;19.70;90.70
32502;DHT22;18952;52.516;13.460;2023-07-13T02:33:09;19.70;90.80
32502;DHT22;18952;52.516;13.460;2023-07-13T02:35:36;19.70;90.80
32502;DHT22;18952;52.516;13.460;2023-07-13T02:38:03;19.70;90.90
32502;DHT22;18952;52.516;13.460;2023-07-13T02:40:29;19.70;91.00
32502;DHT22;18952;52.516;13.460;2023-07-13T02:42:56;19.70;91.00
32502;DHT22;18952;52.516;13.460;2023-07-13T02:45:23;19.70;91.20
32502;DHT22;18952;52.516;13.460;2023-07-13T02:47:50;19.60;91.30
32502;DHT22;18952;52.516;13.460;2023-07-13T02:50:17;19.60;91.60
32502;DHT22;18952;52.516;13.460;2023-07-13T02:52:43;19.60;91.60
32502;DHT22;18952;52.516;13.460;2023-07-13T02:55:10;19.60;91.80
32502;DHT22;18952;52.516;13.460;2023-07-13T02:57:37;19.60;91.80
32502;DHT22;18952;52.516;13.460;2023-07-13T03:00:04;19.60;91.80
32502;DHT22;18952;52.516;13.460;2023-07-13T03:02:32;19.60;91.90
32502;DHT22;18952;52.516;13.460;2023-07-13T03:04:59;19.60;92.00
32502;DHT22;18952;52.516;13.460;2023-07-13T03:07:26;19.60;92.30
32502;DHT22;18952;52.516;13.460;2023-07-13T03:09:57;19.50;92.40
32502;DHT22;18952;52.516;13.460;2023-07-13T03:12:24;19.50;92.60
32502;DHT22;18952;52.516;13.460;2023-07-13T03:14:51;19.50;92.80
32502;DHT22;18952;52.516;13.460;2023-07-13T03:17:18;19.40;92.90
32502;DHT22;18952;52.516;13.460;2023-07-13T03:19:45;19.40;92.90
32502;DHT22;18952;52.516;13.460;2023-07-13T03:22:12;19.50;92.90
32502;DHT22;18952;52.516;13.460;2023-07-13T03:24:39;19.40;93.00
32502;DHT22;18952;52.516;13.460;2023-07-13T03:27:06;19.40;93.00
32502;DHT22;18952;52.516;13.460;2023-07-13T03:29:33;19.40;93.40
32502;DHT22;18952;52.516;13.460;2023-07-13T03:31:59;19.30;93.50
32502;DHT22;18952;52.516;13.460;2023-07-13T03:34:26;19.30;93.80
32502;DHT22;18952;52.516;13.460;2023-07-13T03:36:54;19.30;94.00
32502;DHT22;18952;52.516;13.460;2023-07-13T03:39:21;19.30;94.10
32502;DHT22;18952;52.516;13.460;2023-07-13T03:41:48;19.30;94.20
32502;DHT22;18952;52.516;13.460;2023-07-13T03:44:18;19.30;94.20
32502;DHT22;18952;52.516;13.460;2023-07-13T03:46:45;19.30;94.30
32502;DHT22;18952;52.516;13.460;2023-07-13T03:49:12;19.30;94.50
32502;DHT22;18952;52.516;13.460;2023-07-13T03:51:39;19.30;94.80
32502;DHT22;18952;52.516;13.460;2023-07-13T03:54:06;19.40;94.90
32502;DHT22;18952;52.516;13.460;2023-07-13T03:56:32;19.40;95.10
32502;DHT22;18952;52.516;13.460;2023-07-13T03:58:59;19.30;95.20
32502;DHT22;18952;52.516;13.460;2023-07-13T04:01:26;19.30;95.50
32502;DHT22;18952;52.516;13.460;2023-07-13T04:03:53;19.30;95.50
32502;DHT22;18952;52.516;13.460;2023-07-13T04:06:23;19.30;95.80
32502;DHT22;18952;52.516;13.460;2023-07-13T04:08:53;19.30;95.90
32502;DHT22;18952;52.516;13.460;2023-07-13T04:11:22;19.30;96.00
32502;DHT22;18952;52.516;13.460;2023-07-13T04:13:50;19.30;96.10
32502;DHT22;18952;52.516;13.460;2023-07-13T04:16:18;19.30;96.20
32502;DHT22;18952;52.516;13.460;2023-07-13T04:18:46;19.30;96.40
32502;DHT22;18952;52.516;13.460;2023-07-13T04:21:14;19.30;96.40
32502;DHT22;18952;52.516;13.460;2023-07-13T04:23:41;19.20;96.60
32502;DHT22;18952;52.516;13.460;2023-07-13T04:26:08;19.20;97.00
32502;DHT22;18952;52.516;13.460;2023-07-13T04:28:35;19.20;97.20
32502;DHT22;18952;52.516;13.460;2023-07-13T04:31:02;19.10;97.40
32502;DHT22;18952;52.516;13.460;2023-07-13T04:33:29;19.10;97.30
32502;DHT22;18952;52.516;13.460;2023-07-13T04:35:56;19.10;97.50
32502;DHT22;18952;52.516;13.460;2023-07-13T04:38:29;19.20;97.70
32502;DHT22;18952;52.516;13.460;2023-07-13T04:40:58;19.20;97.70
32502;DHT22;18952;52.516;13.460;2023-07-13T04:43:26;19.20;97.70
32502;DHT22;18952;52.516;13.460;2023-07-13T04:45:53;19.20;98.00
32502;DHT22;18952;52.516;13.460;2023-07-13T04:48:21;19.20;98.30
32502;DHT22;18952;52.516;13.460;2023-07-13T04:50:53;19.20;98.20
32502;DHT22;18952;52.516;13.460;2023-07-13T04:53:20;19.20;98.30
32502;DHT22;18952;52.516;13.460;2023-07-13T04:55:47;19.20;98.40
32502;DHT22;18952;52.516;13.460;2023-07-13T04:58:14;19.20;98.60
32502;DHT22;18952;52.516;13.460;2023-07-13T05:00:40;19.20;98.50
32502;DHT22;18952;52.516;13.460;2023-07-13T05:03:07;19.20;98.70
32502;DHT22;18952;52.516;13.460;2023-07-13T05:05:34;19.20;98.70
32502;DHT22;18952;52.516;13.460;2023-07-13T05:08:01;19.30;98.60
32502;DHT22;18952;52.516;13.460;2023-07-13T05:10:28;19.40;98.50
32502;DHT22;18952;52.516;13.460;2023-07-13T05:12:55;19.40;98.40
32502;DHT22;18952;52.516;13.460;2023-07-13T05:15:22;19.40;98.30
32502;DHT22;18952;52.516;13.460;2023-07-13T05:17:49;19.40;98.30
32502;DHT22;18952;52.516;13.460;2023-07-13T05:20:18;19.40;98.30
32502;DHT22;18952;52.516;13.460;2023-07-13T05:22:45;19.30;98.30
32502;DHT22;18952;52.516;13.460;2023-07-13T05:25:13;19.30;98.50
32502;DHT22;18952;52.516;13.460;2023-07-13T05:27:40;19.20;98.70
32502;DHT22;18952;52.516;13.460;2023-07-13T05:30:07;19.20;98.70
32502;DHT22;18952;52.516;13.460;2023-07-13T05:32:34;19.20;98.90
32502;DHT22;18952;52.516;13.460;2023-07-13T05:35:01;19.20;99.10
32502;DHT22;18952;52.516;13.460;2023-07-13T05:37:27;19.20;99.20
32502;DHT22;18952;52.516;13.460;2023-07-13T05:39:54;19.20;99.30
32502;DHT22;18952;52.516;13.460;2023-07-13T05:42:21;19.20;99.40
32502;DHT22;18952;52.516;13.460;2023-07-13T05:44:48;19.20;99.50
32502;DHT22;18952;52.516;13.460;2023-07-13T05:47:14;19.20;99.90
32502;DHT22;18952;52.516;13.460;2023-07-13T05:49:41;19.10;99.90
32502;DHT22;18952;52.516;13.460;2023-07-13T05:52:08;19.10;99.90
32502;DHT22;18952;52.516;13.460;2023-07-13T05:54:35;19.10;99.90
32502;DHT22;18952;52.516;13.460;2023-07-13T05:57:02;19.00;99.90
32502;DHT22;18952;52.516;13.460;2023-07-13T05:59:29;19.10;99.90
32502;DHT22;18952;52.516;13.460;2023-07-13T06:01:59;19.10;99.90
32502;DHT22;18952;52.516;13.460;2023-07-13T06:04:29;19.10;99.90
32502;DHT22;18952;52.516;13.460;2023-07-13T06:06:56;19.10;99.90
32502;DHT22;18952;52.516;13.460;2023-07-13T06:09:23;19.10;99.90
32502;DHT22;18952;52.516;13.460;2023-07-13T06:11:50;19.10;99.90
32502;DHT22;18952;52.516;13.460;2023-07-13T06:14:17;19.20;99.90
32502;DHT22;18952;52.516;13.460;2023-07-13T06:16:44;19.20;99.90
32502;DHT22;18952;52.516;13.460;2023-07-13T06:19:13;19.30;99.90
32502;DHT22;18952;52.516;13.460;2023-07-13T06:21:39;19.30;99.90
32502;DHT22;18952;52.516;13.460;2023-07-13T06:24:06;19.30;99.90
32502;DHT22;18952;52.516;13.460;2023-07-13T06:26:33;19.20;99.90
32502;DHT22;18952;52.516;13.460;2023-07-13T06:29:00;19.20;99.90
32502;DHT22;18952;52.516;13.460;2023-07-13T06:31:27;19.20;99.90
32502;DHT22;18952;52.516;13.460;2023-07-13T06:33:53;19.30;99.90
32502;DHT22;18952;52.516;13.460;2023-07-13T06:36:20;19.40;99.90
32502;DHT22;18952;52.516;13.460;2023-07-13T06:38:47;19.40;99.90
32502;DHT22;18952;52.516;13.460;2023-07-13T06:41:14;19.40;99.90
32502;DHT22;18952;52.516;13.460;2023-07-13T06:43:41;19.40;99.90
32502;DHT22;18952;52.516;13.460;2023-07-13T06:46:08;19.50;99.90
32502;DHT22;18952;52.516;13.460;2023-07-13T06:48:35;19.40;99.90
32502;DHT22;18952;52.516;13.460;2023-07-13T06:51:02;19.50;99.90
32502;DHT22;18952;52.516;13.460;2023-07-13T06:53:29;19.50;99.90
32502;DHT22;18952;52.516;13.460;2023-07-13T06:55:56;19.50;99.90
32502;DHT22;18952;52.516;13.460;2023-07-13T06:58:23;19.50;99.90
32502;DHT22;18952;52.516;13.460;2023-07-13T07:00:51;19.50;99.90
32502;DHT22;18952;52.516;13.460;2023-07-13T07:03:18;19.50;99.90
32502;DHT22;18952;52.516;13.460;2023-07-13T07:05:45;19.40;99.90
32502;DHT22;18952;52.516;13.460;2023-07-13T07:08:12;19.60;99.90
32502;DHT22;18952;52.516;13.460;2023-07-13T07:10:39;19.70;99.90
32502;DHT22;18952;52.516;13.460;2023-07-13T07:13:07;19.80;99.90
32502;DHT22;18952;52.516;13.460;2023-07-13T07:15:34;19.80;99.90
32502;DHT22;18952;52.516;13.460;2023-07-13T07:18:02;19.90;99.50
32502;DHT22;18952;52.516;13.460;2023-07-13T07:20:29;19.90;99.60
32502;DHT22;18952;52.516;13.460;2023-07-13T07:22:55;20.00;99.40
32502;DHT22;18952;52.516;13.460;2023-07-13T07:25:23;20.00;98.00
32502;DHT22;18952;52.516;13.460;2023-07-13T07:27:49;20.00;97.90
32502;DHT22;18952;52.516;13.460;2023-07-13T07:30:19;20.00;97.70
32502;DHT22;18952;52.516;13.460;2023-07-13T07:32:49;20.00;97.60
32502;DHT22;18952;52.516;13.460;2023-07-13T07:35:19;20.20;97.30
32502;DHT22;18952;52.516;13.460;2023-07-13T07:37:46;20.40;97.50
32502;DHT22;18952;52.516;13.460;2023-07-13T07:40:15;20.60;96.10
32502;DHT22;18952;52.516;13.460;2023-07-13T07:42:45;20.60;96.00
32502;DHT22;18952;52.516;13.460;2023-07-13T07:45:12;20.70;96.00
32502;DHT22;18952;52.516;13.460;2023-07-13T07:47:39;20.80;96.10
32502;DHT22;18952;52.516;13.460;2023-07-13T07:50:06;21.00;95.60
32502;DHT22;18952;52.516;13.460;2023-07-13T07:52:33;21.10;94.30
32502;DHT22;18952;52.516;13.460;2023-07-13T07:55:00;21.00;95.10
32502;DHT22;18952;52.516;13.460;2023-07-13T07:57:29;21.00;95.00
32502;DHT22;18952;52.516;13.460;2023-07-13T07:59:59;21.20;95.10
32502;DHT22;18952;52.516;13.460;2023-07-13T08:02:29;21.30;94.10
32502;DHT22;18952;52.516;13.460;2023-07-13T08:04:58;21.40;94.10
32502;DHT22;18952;52.516;13.460;2023-07-13T08:07:30;21.30;94.10
32502;DHT22;18952;52.516;13.460;2023-07-13T08:09:57;21.40;94.10
32502;DHT22;18952;52.516;13.460;2023-07-13T08:12:24;21.30;93.90
32502;DHT22;18952;52.516;13.460;2023-07-13T08:14:54;21.40;94.00
32502;DHT22;18952;52.516;13.460;2023-07-13T08:17:21;21.40;93.90
32502;DHT22;18952;52.516;13.460;2023-07-13T08:19:48;21.50;94.30
32502;DHT22;18952;52.516;13.460;2023-07-13T08:22:14;21.70;93.90
32502;DHT22;18952;52.516;13.460;2023-07-13T08:24:41;21.70;93.50
32502;DHT22;18952;52.516;13.460;2023-07-13T08:27:08;21.80;93.60
32502;DHT22;18952;52.516;13.460;2023-07-13T08:29:35;21.80;93.10
32502;DHT22;18952;52.516;13.460;2023-07-13T08:32:02;21.80;92.70
32502;DHT22;18952;52.516;13.460;2023-07-13T08:34:29;21.80;92.70
32502;DHT22;18952;52.516;13.460;2023-07-13T08:36:56;21.70;92.10
32502;DHT22;18952;52.516;13.460;2023-07-13T08:39:23;21.70;92.20
32502;DHT22;18952;52.516;13.460;2023-07-13T08:41:56;21.80;92.20
32502;DHT22;18952;52.516;13.460;2023-07-13T08:44:36;21.90;91.80
32502;DHT22;18952;52.516;13.460;2023-07-13T08:47:06;22.00;91.70
32502;DHT22;18952;52.516;13.460;2023-07-13T08:49:35;21.90;92.00
32502;DHT22;18952;52.516;13.460;2023-07-13T08:52:12;22.00;92.10
32502;DHT22;18952;52.516;13.460;2023-07-13T08:54:47;22.10;91.90
32502;DHT22;18952;52.516;13.460;2023-07-13T08:57:21;22.00;91.30
32502;DHT22;18952;52.516;13.460;2023-07-13T08:59:48;21.90;91.80
32502;DHT22;18952;52.516;13.460;2023-07-13T09:02:28;22.00;91.70
32502;DHT22;18952;52.516;13.460;2023-07-13T09:05:28;22.00;91.70
32502;DHT22;18952;52.516;13.460;2023-07-13T09:08:05;21.80;92.10
32502;DHT22;18952;52.516;13.460;2023-07-13T09:10:45;21.70;92.10
32502;DHT22;18952;52.516;13.460;2023-07-13T09:15:47;21.70;92.40
32502;DHT22;18952;52.516;13.460;2023-07-13T09:20:57;21.80;91.10
32502;DHT22;18952;52.516;13.460;2023-07-13T09:23:27;21.80;90.90
32502;DHT22;18952;52.516;13.460;2023-07-13T09:26:11;21.80;90.90
32502;DHT22;18952;52.516;13.460;2023-07-13T09:28:42;21.70;90.20
32502;DHT22;18952;52.516;13.460;2023-07-13T09:33:54;21.60;86.50
32502;DHT22;18952;52.516;13.460;2023-07-13T09:36:28;21.60;88.50
32502;DHT22;18952;52.516;13.460;2023-07-13T09:42:15;21.50;87.30
32502;DHT22;18952;52.516;13.460;2023-07-13T09:45:03;21.50;87.70
32502;DHT22;18952;52.516;13.460;2023-07-13T09:47:33;21.60;85.70
32502;DHT22;18952;52.516;13.460;2023-07-13T09:50:08;21.60;86.10
32502;DHT22;18952;52.516;13.460;2023-07-13T09:52:54;21.80;86.70
32502;DHT22;18952;52.516;13.460;2023-07-13T09:55:27;21.80;85.10
32502;DHT22;18952;52.516;13.460;2023-07-13T09:57:55;21.90;84.20
32502;DHT22;18952;52.516;13.460;2023-07-13T10:00:28;22.10;84.40
32502;DHT22;18952;52.516;13.460;2023-07-13T10:03:14;22.10;84.80
32502;DHT22;18952;52.516;13.460;2023-07-13T10:05:45;22.10;84.50
32502;DHT22;18952;52.516;13.460;2023-07-13T10:10:53;22.00;82.30
32502;DHT22;18952;52.516;13.460;2023-07-13T10:13:27;22.00;82.30
32502;DHT22;18952;52.516;13.460;2023-07-13T10:15:55;22.00;82.70
32502;DHT22;18952;52.516;13.460;2023-07-13T10:18:24;22.00;82.40
32502;DHT22;18952;52.516;13.460;2023-07-13T10:21:20;22.00;82.70
32502;DHT22;18952;52.516;13.460;2023-07-13T10:24:25;22.10;83.20
32502;DHT22;18952;52.516;13.460;2023-07-13T10:27:05;22.20;83.50
32502;DHT22;18952;52.516;13.460;2023-07-13T10:29:38;22.20;83.70
32502;DHT22;18952;52.516;13.460;2023-07-13T10:32:11;22.40;83.20
32502;DHT22;18952;52.516;13.460;2023-07-13T10:34:41;22.40;83.00
32502;DHT22;18952;52.516;13.460;2023-07-13T10:37:17;22.60;82.10
32502;DHT22;18952;52.516;13.460;2023-07-13T10:39:46;22.80;80.60
32502;DHT22;18952;52.516;13.460;2023-07-13T10:42:18;22.70;80.20
32502;DHT22;18952;52.516;13.460;2023-07-13T10:44:48;22.70;79.00
32502;DHT22;18952;52.516;13.460;2023-07-13T10:47:16;22.60;79.00
32502;DHT22;18952;52.516;13.460;2023-07-13T10:49:44;22.60;79.00
32502;DHT22;18952;52.516;13.460;2023-07-13T10:52:45;22.70;79.30
32502;DHT22;18952;52.516;13.460;2023-07-13T10:55:38;22.80;78.80
32502;DHT22;18952;52.516;13.460;2023-07-13T11:03:53;22.90;78.00
32502;DHT22;18952;52.516;13.460;2023-07-13T11:06:41;23.00;76.70
32502;DHT22;18952;52.516;13.460;2023-07-13T11:09:34;23.10;77.50
32502;DHT22;18952;52.516;13.460;2023-07-13T11:12:07;23.20;76.70
32502;DHT22;18952;52.516;13.460;2023-07-13T11:14:37;23.10;76.90
32502;DHT22;18952;52.516;13.460;2023-07-13T11:22:53;23.20;73.40
32502;DHT22;18952;52.516;13.460;2023-07-13T11:25:34;23.10;73.60
32502;DHT22;18952;52.516;13.460;2023-07-13T11:30:38;23.30;73.30
32502;DHT22;18952;52.516;13.460;2023-07-13T11:38:21;23.30;72.80
32502;DHT22;18952;52.516;13.460;2023-07-13T11:40:52;23.30;73.90
32502;DHT22;18952;52.516;13.460;2023-07-13T11:43:23;23.30;73.80
32502;DHT22;18952;52.516;13.460;2023-07-13T11:45:51;23.40;73.20
32502;DHT22;18952;52.516;13.460;2023-07-13T11:48:27;23.60;72.90
32502;DHT22;18952;52.516;13.460;2023-07-13T11:50:58;23.70;71.90
32502;DHT22;18952;52.516;13.460;2023-07-13T11:53:28;23.90;71.50
32502;DHT22;18952;52.516;13.460;2023-07-13T11:55:55;23.80;72.90
32502;DHT22;18952;52.516;13.460;2023-07-13T11:58:27;23.80;72.30
32502;DHT22;18952;52.516;13.460;2023-07-13T12:00:55;24.00;72.10
32502;DHT22;18952;52.516;13.460;2023-07-13T12:03:25;24.20;71.90
32502;DHT22;18952;52.516;13.460;2023-07-13T12:06:01;24.70;70.70
32502;DHT22;18952;52.516;13.460;2023-07-13T12:08:29;24.60;67.70
32502;DHT22;18952;52.516;13.460;2023-07-13T12:11:02;24.40;68.60
32502;DHT22;18952;52.516;13.460;2023-07-13T12:13:29;24.50;67.70
32502;DHT22;18952;52.516;13.460;2023-07-13T12:16:15;24.70;68.50
32502;DHT22;18952;52.516;13.460;2023-07-13T12:18:43;25.20;67.90
32502;DHT22;18952;52.516;13.460;2023-07-13T12:21:13;25.30;68.00
32502;DHT22;18952;52.516;13.460;2023-07-13T12:23:44;25.70;68.20
32502;DHT22;18952;52.516;13.460;2023-07-13T12:26:11;26.00;66.40
32502;DHT22;18952;52.516;13.460;2023-07-13T12:28:49;26.10;66.80
32502;DHT22;18952;52.516;13.460;2023-07-13T12:34:14;26.10;67.20
32502;DHT22;18952;52.516;13.460;2023-07-13T12:39:37;26.10;65.80
32502;DHT22;18952;52.516;13.460;2023-07-13T12:42:30;26.20;65.30
32502;DHT22;18952;52.516;13.460;2023-07-13T12:45:19;26.20;63.50
32502;DHT22;18952;52.516;13.460;2023-07-13T12:47:54;26.30;64.30
32502;DHT22;18952;52.516;13.460;2023-07-13T12:50:27;26.20;64.30
32502;DHT22;18952;52.516;13.460;2023-07-13T12:53:02;26.30;63.90
32502;DHT22;18952;52.516;13.460;2023-07-13T12:55:31;26.50;63.20
32502;DHT22;18952;52.516;13.460;2023-07-13T12:58:13;26.70;63.20
32502;DHT22;18952;52.516;13.460;2023-07-13T13:00:49;26.90;63.20
32502;DHT22;18952;52.516;13.460;2023-07-13T13:03:24;26.90;62.00
32502;DHT22;18952;52.516;13.460;2023-07-13T13:06:05;26.50;62.40
32502;DHT22;18952;52.516;13.460;2023-07-13T13:08:34;26.30;62.00
32502;DHT22;18952;52.516;13.460;2023-07-13T13:11:02;26.40;62.30
32502;DHT22;18952;52.516;13.460;2023-07-13T13:13:28;26.30;62.20
32502;DHT22;18952;52.516;13.460;2023-07-13T13:15:55;26.10;62.30
32502;DHT22;18952;52.516;13.460;2023-07-13T13:18:23;26.10;61.90
32502;DHT22;18952;52.516;13.460;2023-07-13T13:20:51;26.10;62.60
32502;DHT22;18952;52.516;13.460;2023-07-13T13:23:20;26.20;62.90
32502;DHT22;18952;52.516;13.460;2023-07-13T13:25:50;26.50;62.50
32502;DHT22;18952;52.516;13.460;2023-07-13T13:28:19;26.40;61.90
32502;DHT22;18952;52.516;13.460;2023-07-13T13:30:50;26.40;61.90
32502;DHT22;18952;52.516;13.460;2023-07-13T13:33:19;26.50;62.10
32502;DHT22;18952;52.516;13.460;2023-07-13T13:35:46;26.70;61.50
32502;DHT22;18952;52.516;13.460;2023-07-13T13:38:14;26.50;62.30
32502;DHT22;18952;52.516;13.460;2023-07-13T13:40:45;26.10;62.70
32502;DHT22;18952;52.516;13.460;2023-07-13T13:43:26;25.90;63.50
32502;DHT22;18952;52.516;13.460;2023-07-13T13:45:58;25.80;63.30
32502;DHT22;18952;52.516;13.460;2023-07-13T13:48:33;26.00;62.90
32502;DHT22;18952;52.516;13.460;2023-07-13T13:51:18;26.10;63.30
32502;DHT22;18952;52.516;13.460;2023-07-13T13:53:47;26.50;62.40
32502;DHT22;18952;52.516;13.460;2023-07-13T13:56:15;26.90;62.00
32502;DHT22;18952;52.516;13.460;2023-07-13T13:58:43;27.30;61.70
32502;DHT22;18952;52.516;13.460;2023-07-13T14:01:14;27.30;61.20
32502;DHT22;18952;52.516;13.460;2023-07-13T14:03:43;27.10;60.90
32502;DHT22;18952;52.516;13.460;2023-07-13T14:06:14;27.00;61.60
32502;DHT22;18952;52.516;13.460;2023-07-13T14:08:42;27.10;61.00
32502;DHT22;18952;52.516;13.460;2023-07-13T14:11:14;27.30;60.30
32502;DHT22;18952;52.516;13.460;2023-07-13T14:13:48;27.40;59.90
32502;DHT22;18952;52.516;13.460;2023-07-13T14:16:21;27.50;59.80
32502;DHT22;18952;52.516;13.460;2023-07-13T14:18:51;27.00;60.20
32502;DHT22;18952;52.516;13.460;2023-07-13T14:21:20;26.60;60.30
32502;DHT22;18952;52.516;13.460;2023-07-13T14:23:48;26.50;60.50
32502;DHT22;18952;52.516;13.460;2023-07-13T14:26:18;26.30;60.00
32502;DHT22;18952;52.516;13.460;2023-07-13T14:28:48;26.10;60.10
32502;DHT22;18952;52.516;13.460;2023-07-13T14:31:16;26.20;60.50
32502;DHT22;18952;52.516;13.460;2023-07-13T14:33:44;26.50;60.40
32502;DHT22;18952;52.516;13.460;2023-07-13T14:38:41;26.70;61.20
32502;DHT22;18952;52.516;13.460;2023-07-13T14:41:08;26.60;61.70
32502;DHT22;18952;52.516;13.460;2023-07-13T14:43:35;26.80;61.90
32502;DHT22;18952;52.516;13.460;2023-07-13T14:46:02;27.00;61.30
32502;DHT22;18952;52.516;13.460;2023-07-13T14:48:29;27.00;60.70
32502;DHT22;18952;52.516;13.460;2023-07-13T14:50:57;27.00;60.50
32502;DHT22;18952;52.516;13.460;2023-07-13T14:53:27;26.80;61.00
32502;DHT22;18952;52.516;13.460;2023-07-13T14:55:54;26.80;61.00
32502;DHT22;18952;52.516;13.460;2023-07-13T14:58:21;26.90;60.80
32502;DHT22;18952;52.516;13.460;2023-07-13T15:00:48;27.00;60.20
32502;DHT22;18952;52.516;13.460;2023-07-13T15:03:23;26.90;60.50
32502;DHT22;18952;52.516;13.460;2023-07-13T15:05:54;26.90;60.40
32502;DHT22;18952;52.516;13.460;2023-07-13T15:08:20;27.00;60.10
32502;DHT22;18952;52.516;13.460;2023-07-13T15:10:47;27.10;60.00
32502;DHT22;18952;52.516;13.460;2023-07-13T15:13:19;27.10;60.00
32502;DHT22;18952;52.516;13.460;2023-07-13T15:15:49;27.10;59.50
32502;DHT22;18952;52.516;13.460;2023-07-13T15:18:19;27.00;59.30
32502;DHT22;18952;52.516;13.460;2023-07-13T15:20:48;26.80;59.30
32502;DHT22;18952;52.516;13.460;2023-07-13T15:23:17;27.00;58.80
32502;DHT22;18952;52.516;13.460;2023-07-13T15:25:45;27.10;58.80
32502;DHT22;18952;52.516;13.460;2023-07-13T15:28:12;27.30;57.80
32502;DHT22;18952;52.516;13.460;2023-07-13T15:30:44;27.20;57.70
32502;DHT22;18952;52.516;13.460;2023-07-13T15:33:23;27.10;57.20
32502;DHT22;18952;52.516;13.460;2023-07-13T15:35:51;27.00;56.50
32502;DHT22;18952;52.516;13.460;2023-07-13T15:38:24;26.80;56.70
32502;DHT22;18952;52.516;13.460;2023-07-13T15:40:52;26.80;56.90
32502;DHT22;18952;52.516;13.460;2023-07-13T15:43:19;26.80;57.10
32502;DHT22;18952;52.516;13.460;2023-07-13T15:45:47;26.80;57.80
32502;DHT22;18952;52.516;13.460;2023-07-13T15:48:21;26.90;58.30
32502;DHT22;18952;52.516;13.460;2023-07-13T15:50:53;26.90;58.40
32502;DHT22;18952;52.516;13.460;2023-07-13T15:53:27;26.70;58.80
32502;DHT22;18952;52.516;13.460;2023-07-13T15:55:55;26.70;58.50
32502;DHT22;18952;52.516;13.460;2023-07-13T15:58:23;26.80;58.00
32502;DHT22;18952;52.516;13.460;2023-07-13T16:00:50;26.80;58.40
32502;DHT22;18952;52.516;13.460;2023-07-13T16:03:18;27.00;58.60
32502;DHT22;18952;52.516;13.460;2023-07-13T16:05:45;27.10;58.30
32502;DHT22;18952;52.516;13.460;2023-07-13T16:10:47;27.00;58.00
32502;DHT22;18952;52.516;13.460;2023-07-13T16:13:16;26.80;58.60
32502;DHT22;18952;52.516;13.460;2023-07-13T16:15:43;26.60;58.60
32502;DHT22;18952;52.516;13.460;2023-07-13T16:18:14;26.60;58.70
32502;DHT22;18952;52.516;13.460;2023-07-13T16:20:41;26.60;59.50